AirNav   TITAN Aviation Fuels
 
 1051 users online  

3MN9 Schumacher Airport
Oster, Minnesota, USA

GOING TO OSTER?


FAA INFORMATION EFFECTIVE 01 DECEMBER 2022

Location

FAA Identifier: 3MN9
Lat/Long: 44-59-03.8860N 093-56-09.8890W
44-59.064767N 093-56.164817W
44.9844128,-93.9360803
(estimated)
Elevation: 1020 ft. / 311 m (estimated)
Variation: 03E (1995)
From city: 3 miles SE of OSTER, MN
Time zone: UTC -6 (UTC -5 during Daylight Saving Time)
Zip code: 55363

Airport Operations

Airport use: Private use. Permission required prior to landing
Activation date: 10/1999
Control tower: no
ARTCC: MINNEAPOLIS CENTER
FSS: PRINCETON FLIGHT SERVICE STATION
Attendance: UNATNDD
Segmented circle: no

Airport Communications

WX AWOS-3PT at CFE (11 nm N): 120.45 (763-684-0762)
WX AWOS-3 at GYL (15 nm SW): 119.625 (320-864-5830)
WX AWOS-3 at MGG (15 nm N): 128.325 (320-963-3300)

Nearby radio navigation aids

VOR radial/distance  VOR name  Freq  Var
DWNr099/22.8DARWIN VORTAC109.0007E
FCMr293/23.0FLYING CLOUD VOR/DME117.7001E
GEPr242/25.7GOPHER VORTAC117.3006E
MSPr278/30.2MINNEAPOLIS VOR/DME115.3002E
STCr168/34.3ST CLOUD VOR/DME112.1003E
FGTr297/38.5FARMINGTON VORTAC115.7006E

Airport Services

Runway Information

Runway 10/28

Dimensions: 2100 x 100 ft. / 640 x 30 m
Surface: turf
Runway edge markings: RYS 10 & 28 DSPLCD THLD MKD WITH ORANGE CONES.
RUNWAY 10  RUNWAY 28
Traffic pattern: leftleft
Displaced threshold: 225 ft.225 ft.
Obstructions: 16 ft. pline, 250 ft. from runway16 ft. pline, 250 ft. from runway

Airport Ownership and Management from official FAA records

Ownership: Privately-owned
Owner: NIKOLAUS LANDENBAHN LLC
640 OLD LONG LAKE RD
WAYZATA, MN 55391
Phone 952-475-3215
EMAIL ADDRESS: KATHYJSCHUMACHER@MSN.COM
Manager: JAMES J SCHUMACHER JR
640 OLD LONG LAKE RD
WAYZATA, MN 55391
Phone 952-475-3215
EMAIL ADDRESS: JIMJSCHUMACHER@OUTLOOK.COM

Additional Remarks

OWNER DESIRES ARPT NOT BE CHARTED.
FOR CD CTC MINNEAPOLIS ARTCC AT 651-463-5588.

Instrument Procedures

There are no published instrument procedures at 3MN9.

Some nearby airports with instrument procedures:

KCFE - Buffalo Municipal Airport (11 nm N)
KGYL - Glencoe Municipal Airport (15 nm SW)
KMGG - Maple Lake Municipal Airport-Bill Mavencamp Sr Field (15 nm N)
KHCD - Hutchinson Municipal Airport-Butler Field (20 nm W)
KFCM - Flying Cloud Airport (22 nm SE)
 
Loc | Ops | Rwys | IFR | FBO | Links
Com | Nav | Svcs | Stats | Notes
Area around 3MN9 (Schumacher Airport)
 
Road maps at: MapQuest Bing Google
 
Aerial photo
No photo
 
Sectional chart

 
Airport distance calculator
Flying to Schumacher Airport? Find the distance to fly.

From to 3MN9

Sunrise and sunset
Times for 03-Dec-2022
 Local
(UTC-6)
 Zulu
(UTC)
Morning civil twilight07:0413:04
Sunrise07:3713:37
Sunset16:3422:34
Evening civil twilight17:0723:07

Current date and time
Zulu (UTC)  04-Dec-2022 02:51:18
Local (UTC-6)  03-Dec-2022 20:51:18
 
METAR
KCFE 
11nm N 
040235Z AUTO 00000KT 10SM FEW037 FEW043 FEW055 M14/M17 A3021 RMK AO2
KMGG 
15nm N 
040235Z AUTO 00000KT 10SM CLR M13/M16 A3022 RMK AO2 T11301162
KGYL 
15nm SW 
040235Z AUTO 18004KT 7SM CLR M13/M16 A3021 RMK AO2 T11281159
KHCD 
20nm W 
040235Z AUTO 18005KT 10SM CLR M11/M15 A3021 RMK AO2 T11151147
KFCM 
22nm SE 
040153Z 17007KT 10SM CLR M13/M18 A3025 RMK AO2 PRESFR SLP266 T11331178
TAF
NOTAMs
Click for the latest NOTAMs
NOTAMs are issued by the DoD/FAA and will open in a separate window not controlled by AirNav.

 

 
 

Would you like to see your business listed on this page?

 If your business provides an interesting product or service to pilots, flight crews, aircraft, or users of the Schumacher Airport, you should consider listing it here.  To start the listing process, click on the button below
 
Add a business
 

Other Pages about Schumacher Airport

Update a link
 
Copyright © AirNav, LLC. All rights reserved. Privacy Policy  Contact